Time;durP1;ratioP1;P1;durP2;ratioP2;P2;SDS_P1;SDS_P2;PMS_P1;PMS_P2;Temp;Humidity;BMP_temperature;BMP_pressure;BME280_temperature;BME280_humidity;BME280_pressure;Samples;Min_cycle;Max_cycle;Signal;HPM_P1;HPM_P2
2022/10/13 00:00:17;;;;;;;11.38;10.68;;;12.50;99.90;;;;;;4153273;28;20459;-54
2022/10/13 00:02:38;;;;;;;11.98;11.15;;;12.50;99.90;;;;;;4153666;28;20052;-53
2022/10/13 00:04:58;;;;;;;11.30;10.52;;;12.50;99.90;;;;;;4153711;28;20048;-54
2022/10/13 00:07:19;;;;;;;9.95;9.55;;;12.60;99.90;;;;;;4153612;28;20065;-54
2022/10/13 00:09:39;;;;;;;10.32;9.27;;;12.60;99.90;;;;;;4152662;28;20057;-55
2022/10/13 00:12:00;;;;;;;9.13;8.70;;;12.60;99.90;;;;;;4153746;28;20052;-55
2022/10/13 00:14:21;;;;;;;9.68;8.68;;;12.50;99.90;;;;;;4153829;28;20152;-54
2022/10/13 00:16:41;;;;;;;9.15;8.75;;;12.50;99.90;;;;;;4152770;28;20076;-54
2022/10/13 00:19:01;;;;;;;9.40;8.82;;;12.50;99.90;;;;;;4153438;28;20073;-55
2022/10/13 00:21:25;;;;;;;10.15;9.65;;;12.50;99.90;;;;;;4153343;28;20057;-55
2022/10/13 00:23:45;;;;;;;12.20;10.95;;;12.50;99.90;;;;;;4154297;28;20108;-53
2022/10/13 00:26:09;;;;;;;10.60;9.90;;;12.40;99.90;;;;;;4153448;28;20056;-55
2022/10/13 00:28:30;;;;;;;10.52;10.02;;;12.20;99.90;;;;;;4153216;28;20060;-54
2022/10/13 00:30:50;;;;;;;11.65;10.98;;;12.10;99.90;;;;;;4152849;28;20056;-51
2022/10/13 00:33:12;;;;;;;11.13;10.52;;;12.10;99.90;;;;;;4153401;28;20075;-55
2022/10/13 00:35:33;;;;;;;12.15;11.45;;;12.10;99.90;;;;;;4153254;28;20076;-55
2022/10/13 00:37:54;;;;;;;10.30;9.70;;;12.20;99.90;;;;;;4153523;28;20103;-54
2022/10/13 00:40:14;;;;;;;10.80;10.20;;;12.30;99.90;;;;;;4152849;28;20107;-54
2022/10/13 00:42:35;;;;;;;11.00;10.10;;;12.30;99.90;;;;;;4152876;28;20068;-55
2022/10/13 00:45:21;;;;;;;12.30;11.32;;;12.30;99.90;;;;;;4149913;28;20059;-55
2022/10/13 00:47:46;;;;;;;10.23;9.75;;;12.30;99.90;;;;;;4153361;28;20061;-54
2022/10/13 00:50:10;;;;;;;12.20;11.20;;;12.20;99.90;;;;;;4153214;28;20056;-54
2022/10/13 00:52:33;;;;;;;11.38;10.57;;;12.10;99.90;;;;;;4152738;28;20088;-55
2022/10/13 00:54:55;;;;;;;10.20;9.70;;;12.10;99.90;;;;;;4153153;28;20146;-53
2022/10/13 00:57:18;;;;;;;11.93;11.23;;;12.00;99.90;;;;;;4152965;28;20068;-54
2022/10/13 00:59:39;;;;;;;11.23;10.30;;;12.10;99.90;;;;;;4149458;28;20519;-55
2022/10/13 01:02:01;;;;;;;9.77;9.32;;;12.10;99.90;;;;;;4153740;28;20057;-55
2022/10/13 01:04:26;;;;;;;12.63;11.75;;;12.00;99.90;;;;;;4153050;28;20520;-55
2022/10/13 01:06:46;;;;;;;10.73;9.98;;;12.10;99.90;;;;;;4152481;28;20103;-55
2022/10/13 01:09:07;;;;;;;10.65;9.95;;;12.10;99.90;;;;;;4153543;28;20127;-55
2022/10/13 01:11:43;;;;;;;12.85;11.05;;;12.10;99.90;;;;;;4155373;28;20072;-55
2022/10/13 01:14:25;;;;;;;10.70;10.13;;;12.10;99.90;;;;;;4156364;28;20060;-55
2022/10/13 01:17:08;;;;;;;10.80;10.32;;;12.10;99.90;;;;;;4156284;28;20052;-55
2022/10/13 01:19:58;;;;;;;11.85;11.05;;;12.10;99.90;;;;;;4156109;28;20052;-53
2022/10/13 01:22:47;;;;;;;11.35;10.70;;;12.00;99.90;;;;;;4155263;28;20177;-54
2022/10/13 01:25:26;;;;;;;11.52;10.65;;;12.00;99.90;;;;;;4155990;28;20126;-53
2022/10/13 01:28:07;;;;;;;11.93;11.25;;;12.00;99.90;;;;;;4156450;28;20061;-54
2022/10/13 01:34:22;;;;;;;12.32;11.70;;;12.00;99.90;;;;;;4156258;28;20520;-54
2022/10/13 01:36:57;;;;;;;10.30;9.80;;;12.00;99.90;;;;;;4151833;28;20453;-54
2022/10/13 01:39:22;;;;;;;10.65;10.15;;;12.00;99.90;;;;;;4155877;28;20100;-54
2022/10/13 01:41:51;;;;;;;11.02;10.52;;;11.90;99.90;;;;;;4151390;28;20052;-55
2022/10/13 01:44:28;;;;;;;11.35;10.65;;;11.90;99.90;;;;;;4154960;28;20520;-54
2022/10/13 01:46:50;;;;;;;11.93;11.25;;;11.90;99.90;;;;;;4156354;28;20577;-55
2022/10/13 01:49:15;;;;;;;11.73;11.05;;;11.90;99.90;;;;;;4155626;28;20689;-54
2022/10/13 01:51:37;;;;;;;10.90;10.27;;;12.00;99.90;;;;;;4155498;28;20056;-55
2022/10/13 01:53:57;;;;;;;11.43;10.73;;;12.00;99.90;;;;;;4155177;28;20102;-55
2022/10/13 01:56:18;;;;;;;11.05;10.25;;;12.00;99.90;;;;;;4155822;28;20052;-55
2022/10/13 01:58:38;;;;;;;12.32;11.23;;;12.00;99.90;;;;;;4155058;28;20047;-55
2022/10/13 02:01:21;;;;;;;10.25;9.73;;;12.00;99.90;;;;;;4156047;28;20049;-55
2022/10/13 02:04:11;;;;;;;10.68;9.98;;;12.00;99.90;;;;;;4155211;28;20693;-56
2022/10/13 02:06:46;;;;;;;10.63;10.05;;;12.00;99.90;;;;;;4155073;28;20049;-56
2022/10/13 02:09:25;;;;;;;11.50;10.43;;;12.00;99.90;;;;;;4155249;28;20096;-57
2022/10/13 02:11:53;;;;;;;10.52;10.00;;;12.00;99.90;;;;;;4155245;28;20480;-56
2022/10/13 02:14:41;;;;;;;9.68;9.30;;;12.00;99.90;;;;;;4155325;28;20115;-57
2022/10/13 02:17:04;;;;;;;9.60;9.20;;;12.00;99.90;;;;;;4179353;28;20044;-56
2022/10/13 02:19:26;;;;;;;10.70;10.05;;;12.00;99.90;;;;;;4155330;28;20512;-57
2022/10/13 02:21:47;;;;;;;11.15;10.48;;;12.00;99.90;;;;;;4155138;28;20060;-56
2022/10/13 02:24:08;;;;;;;13.05;12.02;;;12.00;99.90;;;;;;4155546;28;20052;-58
2022/10/13 02:26:31;;;;;;;11.40;10.38;;;11.90;99.90;;;;;;4155863;28;20481;-54
2022/10/13 02:28:51;;;;;;;10.63;10.20;;;11.90;99.90;;;;;;4155165;28;20100;-57
2022/10/13 02:31:12;;;;;;;11.25;10.73;;;11.90;99.90;;;;;;4155246;28;20055;-57
2022/10/13 02:33:33;;;;;;;11.57;11.00;;;11.90;99.90;;;;;;4154993;28;20053;-56
2022/10/13 02:35:53;;;;;;;12.60;11.63;;;11.90;99.90;;;;;;4155044;28;20044;-57
2022/10/13 02:38:13;;;;;;;12.20;11.52;;;11.90;99.90;;;;;;4151639;28;20138;-58
2022/10/13 02:40:34;;;;;;;11.43;10.75;;;11.80;99.90;;;;;;4154939;28;20048;-57
2022/10/13 02:42:55;;;;;;;12.30;11.45;;;11.80;99.90;;;;;;4154959;28;20104;-57
2022/10/13 02:47:56;;;;;;;15.73;12.77;;;11.60;99.90;;;;;;4155062;28;20562;-56
2022/10/13 02:50:17;;;;;;;11.70;10.85;;;11.60;99.90;;;;;;4154926;28;20099;-56
2022/10/13 02:52:38;;;;;;;12.55;11.68;;;11.60;99.90;;;;;;4154702;28;20522;-56
2022/10/13 02:54:58;;;;;;;12.43;11.60;;;11.60;99.90;;;;;;4154996;28;20125;-57
2022/10/13 02:57:19;;;;;;;11.90;11.02;;;11.60;99.90;;;;;;4155026;28;20072;-58
2022/10/13 02:59:39;;;;;;;12.52;11.65;;;11.60;99.90;;;;;;4154334;28;20093;-55
2022/10/13 03:02:01;;;;;;;13.60;12.20;;;11.60;99.90;;;;;;4154364;28;20096;-57
2022/10/13 03:04:21;;;;;;;11.95;11.27;;;11.70;99.90;;;;;;4154488;28;20052;-56
2022/10/13 03:06:42;;;;;;;11.63;10.85;;;11.60;99.90;;;;;;4154069;28;20108;-57
2022/10/13 03:09:06;;;;;;;12.15;11.13;;;11.70;99.90;;;;;;4154879;28;20115;-57
2022/10/13 03:11:26;;;;;;;11.20;10.50;;;11.60;99.90;;;;;;4154090;28;20056;-57
2022/10/13 03:13:47;;;;;;;10.32;9.70;;;11.60;99.90;;;;;;4154159;28;20056;-56
2022/10/13 03:16:08;;;;;;;11.18;10.63;;;11.60;99.90;;;;;;4152001;28;20414;-57
2022/10/13 03:18:29;;;;;;;11.55;10.95;;;11.70;99.90;;;;;;4154644;28;20052;-56
2022/10/13 03:21:03;;;;;;;11.07;10.10;;;11.70;99.90;;;;;;4153748;28;20053;-56
2022/10/13 03:23:25;;;;;;;10.55;9.80;;;11.60;99.90;;;;;;4153751;28;20060;-57
2022/10/13 03:25:45;;;;;;;10.18;9.68;;;11.60;99.90;;;;;;4154541;28;20060;-56
2022/10/13 03:28:06;;;;;;;10.48;9.75;;;11.70;99.90;;;;;;4154263;28;20141;-56
2022/10/13 03:30:26;;;;;;;9.35;8.88;;;11.60;99.90;;;;;;4153800;28;20568;-57
2022/10/13 03:32:47;;;;;;;9.95;9.02;;;11.60;99.90;;;;;;4153454;28;20498;-57
2022/10/13 03:35:07;;;;;;;9.38;8.60;;;11.60;99.90;;;;;;4153797;28;20103;-57
2022/10/13 03:37:29;;;;;;;10.02;9.57;;;11.60;99.90;;;;;;4154642;28;20523;-56
2022/10/13 03:39:50;;;;;;;10.63;10.07;;;11.60;99.90;;;;;;4154066;28;20053;-57
2022/10/13 03:42:10;;;;;;;10.82;10.30;;;11.50;99.90;;;;;;4154461;28;20064;-57
2022/10/13 03:44:31;;;;;;;10.82;10.13;;;11.40;99.90;;;;;;4154006;28;20060;-57
2022/10/13 03:46:51;;;;;;;11.45;10.70;;;11.40;99.90;;;;;;4154256;28;20146;-56
2022/10/13 03:49:12;;;;;;;12.80;11.93;;;11.40;99.90;;;;;;4153823;28;20060;-57
2022/10/13 03:51:33;;;;;;;13.38;11.88;;;11.30;99.90;;;;;;4154046;28;20137;-57
2022/10/13 03:53:53;;;;;;;10.30;9.75;;;11.40;99.90;;;;;;4154891;28;20099;-56
2022/10/13 03:56:16;;;;;;;10.75;10.25;;;11.30;99.90;;;;;;4153695;28;20095;-56
2022/10/13 03:58:37;;;;;;;10.85;10.30;;;11.30;99.90;;;;;;4154507;28;20520;-57
2022/10/13 04:01:03;;;;;;;13.75;12.75;;;11.30;99.90;;;;;;4153053;28;20464;-56
2022/10/13 04:03:23;;;;;;;11.13;10.45;;;11.20;99.90;;;;;;4154034;28;20103;-57
2022/10/13 04:05:45;;;;;;;11.70;10.95;;;11.20;99.90;;;;;;4153721;28;20056;-57
2022/10/13 04:08:05;;;;;;;11.00;9.88;;;11.20;99.90;;;;;;4153497;28;20096;-56
2022/10/13 04:10:26;;;;;;;10.60;10.15;;;11.10;99.90;;;;;;4149654;28;20519;-57
2022/10/13 04:12:48;;;;;;;10.40;9.77;;;11.00;99.90;;;;;;4153594;28;20099;-55
2022/10/13 04:15:09;;;;;;;10.73;10.13;;;11.00;99.90;;;;;;4153699;28;20056;-56
2022/10/13 04:17:30;;;;;;;11.68;10.32;;;10.90;99.90;;;;;;4152602;28;20112;-57
2022/10/13 04:19:50;;;;;;;11.45;10.63;;;11.00;99.90;;;;;;4154213;28;20051;-57
2022/10/13 04:22:10;;;;;;;10.77;9.88;;;11.00;99.90;;;;;;4157836;28;20151;-55
2022/10/13 04:24:31;;;;;;;11.07;10.27;;;11.00;99.90;;;;;;4153592;28;20125;-57
2022/10/13 04:26:52;;;;;;;11.05;10.65;;;11.00;99.90;;;;;;4153465;28;20589;-56
2022/10/13 04:29:12;;;;;;;10.82;10.02;;;10.90;99.90;;;;;;4153489;28;20059;-57
2022/10/13 04:31:34;;;;;;;10.18;9.32;;;10.90;99.90;;;;;;4149206;28;20144;-57
2022/10/13 04:33:54;;;;;;;12.02;11.05;;;10.80;99.90;;;;;;4153444;28;20433;-57
2022/10/13 04:36:16;;;;;;;11.05;10.52;;;10.80;99.90;;;;;;4153648;28;20121;-57
2022/10/13 04:38:37;;;;;;;10.15;9.43;;;10.80;99.90;;;;;;4153185;28;20052;-57
2022/10/13 04:41:00;;;;;;;9.88;9.23;;;10.70;99.90;;;;;;4153330;28;20088;-56
2022/10/13 04:43:21;;;;;;;;;;;10.70;99.90;;;;;;4153561;28;20080;-56
2022/10/13 04:45:41;;;;;;;11.25;10.30;;;10.80;99.90;;;;;;4153430;28;20494;-57
2022/10/13 04:48:02;;;;;;;11.55;11.10;;;10.80;99.90;;;;;;4153218;28;20501;-58
2022/10/13 04:50:22;;;;;;;10.65;10.15;;;10.80;99.90;;;;;;4151600;28;20075;-57
2022/10/13 04:52:43;;;;;;;11.43;10.68;;;10.70;99.90;;;;;;4153617;28;20096;-57
2022/10/13 04:55:04;;;;;;;11.15;10.32;;;10.70;99.90;;;;;;4153463;28;20142;-57
2022/10/13 04:57:24;;;;;;;10.48;9.80;;;10.70;99.90;;;;;;4150436;28;20095;-57
2022/10/13 04:59:45;;;;;;;11.77;10.70;;;10.70;99.90;;;;;;4154016;28;20144;-57
2022/10/13 05:02:05;;;;;;;11.00;10.30;;;10.70;99.90;;;;;;4153498;28;20417;-57
2022/10/13 05:04:26;;;;;;;11.07;10.40;;;10.70;99.90;;;;;;4153253;28;20080;-57
2022/10/13 05:06:46;;;;;;;12.65;11.68;;;10.60;99.90;;;;;;4153055;28;20064;-57
2022/10/13 05:09:28;;;;;;;12.27;11.07;;;10.60;99.90;;;;;;4153446;28;20057;-57
2022/10/13 05:11:48;;;;;;;11.88;10.90;;;10.50;99.90;;;;;;4153207;28;20714;-57
2022/10/13 05:14:09;;;;;;;11.50;10.75;;;10.40;99.90;;;;;;4153038;28;20124;-58
2022/10/13 05:16:30;;;;;;;12.15;11.23;;;10.40;99.90;;;;;;4153424;28;20698;-57
2022/10/13 05:18:52;;;;;;;11.95;11.00;;;10.40;99.90;;;;;;4153888;28;20095;-57
2022/10/13 05:21:19;;;;;;;12.68;11.52;;;10.30;99.90;;;;;;4153226;28;20060;-57
2022/10/13 05:23:40;;;;;;;12.43;11.50;;;10.30;99.90;;;;;;4153417;28;20111;-57
2022/10/13 05:26:03;;;;;;;12.00;11.20;;;10.30;99.90;;;;;;4152538;28;20060;-58
2022/10/13 05:28:24;;;;;;;;;;;10.30;99.90;;;;;;4153048;28;20060;-58
2022/10/13 05:30:45;;;;;;;11.77;9.00;;;10.40;99.90;;;;;;4153294;28;20032;-58
2022/10/13 05:33:05;;;;;;;9.05;8.52;;;10.50;99.90;;;;;;4152099;28;20068;-58
2022/10/13 05:35:27;;;;;;;10.05;9.23;;;10.50;99.90;;;;;;4152501;28;20084;-58
2022/10/13 05:37:47;;;;;;;9.52;8.95;;;10.50;99.90;;;;;;4158842;28;20127;-58
2022/10/13 05:40:08;;;;;;;7.97;7.68;;;10.60;99.90;;;;;;4153153;28;20045;-58
2022/10/13 05:42:29;;;;;;;8.25;7.95;;;10.60;99.90;;;;;;4152798;28;20104;-58
2022/10/13 05:44:50;;;;;;;8.48;7.88;;;10.60;99.90;;;;;;4153525;28;20072;-58
2022/10/13 05:47:11;;;;;;;8.43;8.02;;;10.60;99.90;;;;;;4153242;28;20056;-58
2022/10/13 05:49:31;;;;;;;10.52;9.35;;;10.60;99.90;;;;;;4153502;28;20731;-58
2022/10/13 05:52:00;;;;;;;8.95;8.45;;;10.60;99.90;;;;;;4152295;28;20057;-58
2022/10/13 05:54:28;;;;;;;8.70;8.30;;;10.60;99.90;;;;;;4152325;28;20073;-58
2022/10/13 05:57:00;;;;;;;7.90;7.47;;;10.60;99.90;;;;;;4153278;28;20111;-58
2022/10/13 05:59:22;;;;;;;10.50;9.68;;;10.60;99.90;;;;;;4153857;28;20524;-58
2022/10/13 06:01:47;;;;;;;10.02;9.32;;;10.60;99.90;;;;;;4153997;28;20061;-57
2022/10/13 06:04:16;;;;;;;9.75;9.02;;;10.50;99.90;;;;;;4154209;28;20404;-56
2022/10/13 06:06:38;;;;;;;11.43;10.52;;;10.50;99.90;;;;;;4153545;28;20089;-57
2022/10/13 06:09:00;;;;;;;12.05;10.93;;;10.40;99.90;;;;;;4154876;28;20515;-56
2022/10/13 06:11:21;;;;;;;14.02;12.50;;;10.40;99.90;;;;;;4154700;28;20053;-56
2022/10/13 06:13:41;;;;;;;12.30;11.52;;;10.40;99.90;;;;;;4154539;28;20057;-57
2022/10/13 06:16:02;;;;;;;14.32;13.57;;;10.40;99.90;;;;;;4153948;28;20312;-58
2022/10/13 06:18:23;;;;;;;12.45;11.75;;;10.40;99.90;;;;;;4154830;28;20126;-57
2022/10/13 06:20:44;;;;;;;14.18;13.07;;;10.40;99.90;;;;;;4154806;28;20052;-58
2022/10/13 06:23:05;;;;;;;13.43;12.50;;;10.40;99.90;;;;;;4155103;28;20076;-58
2022/10/13 06:25:27;;;;;;;14.13;12.90;;;10.30;99.90;;;;;;4154940;28;20052;-58
2022/10/13 06:27:48;;;;;;;13.65;12.40;;;10.40;99.90;;;;;;4155541;28;20141;-57
2022/10/13 06:30:09;;;;;;;15.18;13.95;;;10.40;99.90;;;;;;4155155;28;20056;-57
2022/10/13 06:32:30;;;;;;;14.25;12.82;;;10.40;99.90;;;;;;4155027;28;20051;-57
2022/10/13 06:34:50;;;;;;;12.23;11.60;;;10.40;99.90;;;;;;4151417;28;20115;-58
2022/10/13 06:37:11;;;;;;;11.60;10.95;;;10.50;99.90;;;;;;4159602;28;20060;-56
2022/10/13 06:39:32;;;;;;;11.45;10.25;;;10.50;99.90;;;;;;4154043;28;20060;-57
2022/10/13 06:41:54;;;;;;;9.57;8.98;;;10.50;99.90;;;;;;4154819;28;20049;-57
2022/10/13 06:44:14;;;;;;;12.18;10.63;;;10.50;99.90;;;;;;4150155;28;20077;-56
2022/10/13 06:46:34;;;;;;;11.57;10.73;;;10.60;99.90;;;;;;4154786;28;20128;-56
2022/10/13 06:48:55;;;;;;;8.88;8.15;;;10.90;99.90;;;;;;4154585;28;20064;-55
2022/10/13 06:51:15;;;;;;;8.50;7.03;;;11.00;99.90;;;;;;4154898;28;20543;-57
2022/10/13 06:53:36;;;;;;;9.13;8.55;;;10.90;99.90;;;;;;4153908;28;20048;-57
2022/10/13 06:55:58;;;;;;;9.10;8.32;;;10.90;99.90;;;;;;4155386;28;20108;-56
2022/10/13 06:58:18;;;;;;;8.23;7.47;;;11.20;99.90;;;;;;4153621;28;20056;-57
2022/10/13 07:00:40;;;;;;;8.65;8.18;;;11.60;99.90;;;;;;4153986;28;20413;-57
2022/10/13 07:03:00;;;;;;;8.85;8.07;;;11.60;99.90;;;;;;4151774;28;20057;-57
2022/10/13 07:05:21;;;;;;;8.95;7.78;;;11.50;99.90;;;;;;4152058;28;20048;-57
2022/10/13 07:07:42;;;;;;;7.97;7.55;;;11.50;99.90;;;;;;4152290;28;20587;-57
2022/10/13 07:10:02;;;;;;;8.00;7.28;;;11.60;99.90;;;;;;4151416;28;20137;-57
2022/10/13 07:12:23;;;;;;;7.90;7.38;;;11.60;99.90;;;;;;4153268;28;20056;-57
2022/10/13 07:14:46;;;;;;;8.63;7.63;;;11.60;99.90;;;;;;4153041;28;20120;-57
2022/10/13 07:17:07;;;;;;;16.88;7.93;;;11.70;99.90;;;;;;4152143;28;20053;-58
2022/10/13 07:19:28;;;;;;;8.95;8.27;;;11.70;99.90;;;;;;4153773;28;20053;-57
2022/10/13 07:21:48;;;;;;;8.80;8.07;;;11.80;99.90;;;;;;4152932;28;20099;-57
2022/10/13 07:24:10;;;;;;;7.45;6.85;;;12.00;99.90;;;;;;4154086;28;20048;-55
2022/10/13 07:26:32;;;;;;;7.65;7.18;;;12.10;99.90;;;;;;4153507;28;20127;-57
2022/10/13 07:28:53;;;;;;;6.90;6.47;;;12.10;99.90;;;;;;4151350;28;20064;-57
2022/10/13 07:31:16;;;;;;;7.28;6.53;;;12.20;99.90;;;;;;4153713;28;20127;-57
2022/10/13 07:33:37;;;;;;;6.28;5.78;;;12.20;99.90;;;;;;4154620;28;20052;-57
2022/10/13 07:35:58;;;;;;;6.63;6.28;;;12.20;99.90;;;;;;4151985;28;20116;-55
2022/10/13 07:38:19;;;;;;;7.50;7.00;;;12.20;99.90;;;;;;4154654;28;20548;-56
2022/10/13 07:40:40;;;;;;;7.75;7.25;;;12.30;99.90;;;;;;4151795;28;20113;-57
2022/10/13 07:43:01;;;;;;;7.95;6.93;;;12.30;99.90;;;;;;4154593;28;20059;-56
2022/10/13 07:45:22;;;;;;;8.32;7.45;;;12.40;99.90;;;;;;4154185;28;20117;-57
2022/10/13 07:47:43;;;;;;;9.88;7.00;;;12.40;99.90;;;;;;4153221;28;20567;-57
2022/10/13 07:50:04;;;;;;;8.10;7.43;;;12.50;99.90;;;;;;4153856;28;20560;-57
2022/10/13 07:52:25;;;;;;;9.77;7.78;;;12.60;99.90;;;;;;4154118;28;20539;-57
2022/10/13 07:54:45;;;;;;;9.77;8.13;;;12.70;99.90;;;;;;4152293;28;21105;-57
2022/10/13 07:57:06;;;;;;;14.80;6.95;;;12.90;99.90;;;;;;4151608;28;20593;-57
2022/10/13 07:59:27;;;;;;;8.90;8.15;;;13.20;99.90;;;;;;4150757;28;20057;-58
2022/10/13 08:01:48;;;;;;;7.72;6.93;;;13.40;99.90;;;;;;4152615;28;20104;-57
2022/10/13 08:04:09;;;;;;;7.93;7.07;;;13.40;99.90;;;;;;4150025;28;20051;-57
2022/10/13 08:06:29;;;;;;;8.57;7.60;;;13.50;99.90;;;;;;4152749;28;20472;-58
2022/10/13 08:59:45;;;;;;;8.85;8.23;;;16.80;99.90;;;;;;4230555;27;20108;-83
2022/10/13 09:02:45;;;;;;;8.38;7.97;;;16.80;99.90;;;;;;4227989;28;20438;-84
2022/10/13 09:05:13;;;;;;;6.00;5.70;;;17.00;99.90;;;;;;4151316;28;20049;-83
2022/10/13 09:07:37;;;;;;;9.38;5.65;;;17.00;99.90;;;;;;4154398;28;20065;-83
2022/10/13 09:09:59;;;;;;;6.43;5.45;;;17.10;99.90;;;;;;4140101;28;20092;-86
2022/10/13 09:12:23;;;;;;;5.75;4.97;;;17.20;99.90;;;;;;4154744;28;20052;-83
2022/10/13 09:15:21;;;;;;;5.80;5.28;;;17.30;99.90;;;;;;4157222;28;20100;-84
2022/10/13 09:18:12;;;;;;;6.32;4.85;;;17.30;99.90;;;;;;4093169;28;20058;-82
2022/10/13 09:29:25;;;;;;;7.03;6.73;;;17.60;99.90;;;;;;4163738;27;2056056;-83
2022/10/13 09:31:46;;;;;;;5.63;5.22;;;17.50;99.90;;;;;;4176146;28;20294;-86
2022/10/13 09:34:19;;;;;;;6.38;5.97;;;17.40;99.90;;;;;;4183537;28;20163;-84
2022/10/13 10:02:34;;;;;;;7.03;6.65;;;20.00;99.90;;;;;;4175824;28;20052;-87
2022/10/13 10:05:10;;;;;;;7.43;6.60;;;20.20;99.90;;;;;;4130476;28;20585;-86
2022/10/13 10:08:10;;;;;;;5.70;5.50;;;20.40;99.90;;;;;;4142232;28;20112;-87
2022/10/13 10:11:04;;;;;;;5.45;5.15;;;20.70;99.90;;;;;;4096212;28;20067;-87
2022/10/13 10:13:39;;;;;;;4.90;4.60;;;20.70;99.90;;;;;;4051700;29;20096;-87
2022/10/13 10:17:01;;;;;;;5.15;4.85;;;20.70;99.90;;;;;;4050720;29;20093;-87
2022/10/13 10:19:57;;;;;;;5.70;5.47;;;21.00;99.90;;;;;;4027235;29;20120;-90
2022/10/13 10:22:43;;;;;;;6.97;6.45;;;20.70;99.90;;;;;;4047658;29;20055;-85
2022/10/13 10:25:32;;;;;;;5.95;5.45;;;20.80;99.90;;;;;;4048251;29;20143;-84
2022/10/13 10:28:28;;;;;;;5.00;4.80;;;21.10;99.90;;;;;;4022806;29;20163;-85
2022/10/13 10:31:24;;;;;;;8.60;5.30;;;21.40;99.90;;;;;;4017794;29;20048;-86
2022/10/13 10:37:33;;;;;;;4.38;4.05;;;21.60;99.90;;;;;;3998322;29;20113;-85
2022/10/13 10:40:17;;;;;;;4.82;4.50;;;21.50;99.90;;;;;;3974753;29;20161;-86
2022/10/13 10:50:00;;;;;;;4.07;3.78;;;21.80;99.90;;;;;;4003602;29;20129;-86
2022/10/13 10:52:57;;;;;;;4.00;3.80;;;22.10;99.90;;;;;;4045686;29;20105;-85
2022/10/13 10:56:03;;;;;;;3.90;3.70;;;22.30;99.90;;;;;;4025474;29;20103;-84
2022/10/13 10:58:40;;;;;;;4.65;3.67;;;22.50;99.90;;;;;;4059204;29;20051;-85
2022/10/13 11:02:00;;;;;;;3.90;3.70;;;22.60;99.90;;;;;;4063142;29;20438;-84
2022/10/13 11:04:39;;;;;;;2.70;2.60;;;22.50;99.90;;;;;;4003989;29;20160;-85
2022/10/13 11:07:00;;;;;;;4.63;2.95;;;22.70;99.90;;;;;;4002989;29;20046;-85
2022/10/13 11:09:45;;;;;;;2.80;2.70;;;22.60;99.10;;;;;;3994971;29;20053;-86
2022/10/13 11:12:52;;;;;;;3.28;2.50;;;22.60;99.90;;;;;;3993224;29;20510;-84
2022/10/13 11:15:30;;;;;;;2.85;2.60;;;22.50;99.90;;;;;;3983706;29;20062;-85
2022/10/13 11:18:41;;;;;;;3.50;2.20;;;22.80;99.80;;;;;;3986849;29;20087;-85
2022/10/13 11:21:52;;;;;;;2.13;2.03;;;22.80;99.20;;;;;;3950033;30;20128;-85
2022/10/13 11:27:39;;;;;;;3.90;3.17;;;22.70;99.30;;;;;;3905207;30;20110;-86
2022/10/13 11:30:00;;;;;;;2.40;2.10;;;23.50;98.40;;;;;;3919461;30;20051;-85
2022/10/13 11:32:56;;;;;;;2.28;2.10;;;23.50;98.40;;;;;;3919911;30;20101;-83
2022/10/13 11:35:24;;;;;;;5.95;2.17;;;23.50;97.70;;;;;;3888947;30;20087;-83
2022/10/13 11:37:56;;;;;;;2.10;2.00;;;23.30;97.10;;;;;;3876542;30;20104;-83
2022/10/13 11:44:03;;;;;;;2.70;1.63;;;23.30;97.60;;;;;;3935417;30;20818;-83
2022/10/13 11:46:58;;;;;;;5.90;2.83;;;23.40;98.10;;;;;;3947195;30;20089;-86
2022/10/13 11:49:51;;;;;;;3.38;2.35;;;23.40;97.80;;;;;;3934053;30;20055;-86
2022/10/13 11:52:41;;;;;;;7.22;2.92;;;23.60;97.90;;;;;;3947793;30;20140;-84
2022/10/13 11:59:04;;;;;;;2.80;2.60;;;23.90;97.20;;;;;;3933978;30;20159;-85
2022/10/13 12:01:23;;;;;;;15.15;3.38;;;23.70;98.50;;;;;;3931894;30;20526;-84
2022/10/13 12:07:32;;;;;;;4.35;2.33;;;24.40;99.00;;;;;;3933759;30;20054;-87
2022/10/13 12:09:54;;;;;;;4.95;2.10;;;24.40;98.40;;;;;;3919479;30;20429;-84
2022/10/13 12:12:17;;;;;;;2.90;1.77;;;23.90;97.30;;;;;;3961385;30;20156;-88
2022/10/13 12:14:43;;;;;;;2.47;1.77;;;24.10;98.20;;;;;;3960964;30;20432;-87
2022/10/13 12:17:02;;;;;;;13.48;3.03;;;24.10;97.20;;;;;;3948570;30;20504;-88
2022/10/13 12:19:30;;;;;;;3.25;2.42;;;23.90;97.40;;;;;;3963927;29;20051;-85
2022/10/13 12:21:55;;;;;;;2.03;1.65;;;23.80;98.10;;;;;;3975446;29;20061;-87
2022/10/13 12:25:00;;;;;;;2.80;2.13;;;23.70;98.00;;;;;;3976091;29;21610;-86
2022/10/13 12:27:55;;;;;;;5.53;2.60;;;24.10;97.50;;;;;;3945155;30;20073;-88
2022/10/13 12:33:36;;;;;;;3.13;2.22;;;23.90;97.50;;;;;;3875317;30;20067;-87
2022/10/13 12:36:43;;;;;;;9.63;2.42;;;23.70;97.80;;;;;;3869001;30;20049;-86
2022/10/13 12:39:36;;;;;;;8.32;2.88;;;23.90;97.20;;;;;;3902993;30;20055;-88
2022/10/13 12:41:59;;;;;;;3.95;1.88;;;23.60;97.70;;;;;;3930488;30;20059;-88
2022/10/13 12:44:22;;;;;;;2.08;1.70;;;23.80;97.20;;;;;;3932475;30;20124;-88
2022/10/13 13:02:00;;;;;;;3.30;3.15;;;23.80;98.10;;;;;;4232689;27;20379;-89
2022/10/13 13:24:56;;;;;;;3.35;3.10;;;23.40;96.90;;;;;;4227655;27;20414;-86
2022/10/13 13:27:16;;;;;;;3.17;3.08;;;23.50;97.40;;;;;;4197675;28;20051;-87
2022/10/13 13:29:38;;;;;;;5.70;2.70;;;23.20;97.80;;;;;;4201887;28;20072;-88
2022/10/13 13:32:00;;;;;;;2.05;1.92;;;23.40;98.00;;;;;;4204697;28;20078;-87
2022/10/13 13:34:24;;;;;;;2.55;2.45;;;23.30;98.30;;;;;;4200105;28;20102;-87
2022/10/13 13:37:22;;;;;;;11.35;4.18;;;23.70;98.00;;;;;;4204695;28;20056;-86
2022/10/13 13:39:43;;;;;;;2.95;2.30;;;23.60;98.50;;;;;;4112443;28;20078;-88
2022/10/13 13:42:38;;;;;;;2.28;2.17;;;23.50;97.80;;;;;;4121705;28;20603;-88
2022/10/13 13:45:00;;;;;;;2.00;1.90;;;23.80;97.60;;;;;;4064853;29;20062;-88
2022/10/13 13:47:23;;;;;;;2.92;2.72;;;23.60;97.80;;;;;;4066318;29;20066;-85
2022/10/13 13:49:43;;;;;;;;;;;23.60;97.40;;;;;;4068274;29;20076;-87
2022/10/13 13:52:05;;;;;;;17.05;3.92;;;23.60;98.10;;;;;;4052982;29;20026;-87
2022/10/13 13:54:25;;;;;;;3.78;1.88;;;23.70;97.10;;;;;;4066529;29;20055;-84
2022/10/13 13:56:46;;;;;;;8.63;2.58;;;23.50;97.70;;;;;;4068611;29;20108;-87
2022/10/13 13:59:07;;;;;;;5.68;1.60;;;23.30;98.80;;;;;;4053150;29;20082;-86
2022/10/13 14:01:27;;;;;;;3.42;2.22;;;23.20;98.80;;;;;;4066992;29;21772;-84
2022/10/13 14:03:49;;;;;;;1.73;1.63;;;23.00;99.10;;;;;;4069842;29;20480;-87
2022/10/13 14:06:21;;;;;;;7.20;1.93;;;22.90;99.10;;;;;;4067634;29;20419;-89
2022/10/13 14:08:44;;;;;;;5.10;2.13;;;23.00;98.90;;;;;;4068078;29;20075;-86
2022/10/13 14:11:07;;;;;;;1.50;1.40;;;23.00;97.60;;;;;;4068761;29;20625;-86
2022/10/13 14:13:28;;;;;;;;;;;22.90;98.60;;;;;;4068028;29;20787;-86
2022/10/13 14:16:02;;;;;;;2.33;1.42;;;22.90;98.90;;;;;;4084500;28;19928;-88
2022/10/13 14:18:23;;;;;;;2.10;2.00;;;22.70;98.70;;;;;;4140969;28;20061;-86
2022/10/13 14:21:08;;;;;;;5.93;1.75;;;22.70;99.20;;;;;;4176630;28;20152;-86
2022/10/13 14:23:28;;;;;;;3.55;2.00;;;22.80;99.60;;;;;;4141640;28;20097;-86
2022/10/13 14:25:49;;;;;;;2.03;1.90;;;22.70;99.20;;;;;;4111231;28;20206;-86
2022/10/13 14:28:10;;;;;;;4.22;2.67;;;22.50;99.20;;;;;;4129692;28;20062;-88
2022/10/13 14:30:40;;;;;;;8.90;1.67;;;22.40;99.60;;;;;;4108804;28;20275;-85
2022/10/13 14:33:03;;;;;;;3.20;2.75;;;22.60;98.70;;;;;;4114382;28;20138;-89
2022/10/13 14:35:26;;;;;;;1.90;1.80;;;22.20;99.00;;;;;;4112288;28;20109;-88
2022/10/13 14:37:47;;;;;;;3.15;2.17;;;22.30;99.20;;;;;;4108846;28;20061;-86
2022/10/13 14:40:38;;;;;;;2.25;1.50;;;22.20;99.10;;;;;;4108484;28;20562;-91
2022/10/13 14:43:37;;;;;;;2.95;1.92;;;22.20;99.70;;;;;;4062252;29;20544;-86
2022/10/13 14:46:03;;;;;;;2.45;1.90;;;22.00;99.40;;;;;;4000144;29;20081;-83
2022/10/13 14:48:24;;;;;;;2.10;2.00;;;21.70;99.70;;;;;;3999645;29;20053;-85
2022/10/13 14:50:44;;;;;;;5.45;1.98;;;21.60;99.90;;;;;;4001700;29;20060;-85
2022/10/13 14:53:42;;;;;;;2.95;2.10;;;21.60;99.90;;;;;;4003048;29;20114;-86
2022/10/13 14:56:16;;;;;;;2.42;2.33;;;21.40;99.90;;;;;;3981775;29;20180;-83
2022/10/13 14:58:38;;;;;;;2.72;2.53;;;21.10;99.90;;;;;;3972540;29;20050;-87
2022/10/13 15:00:55;;;;;;;7.43;2.60;;;21.10;99.90;;;;;;4192588;28;20399;-56
2022/10/13 15:03:16;;;;;;;2.35;2.15;;;21.10;99.90;;;;;;4182364;28;20051;-57
2022/10/13 15:05:37;;;;;;;3.08;2.38;;;21.00;99.90;;;;;;4180386;28;20048;-57
2022/10/13 15:07:57;;;;;;;2.42;2.33;;;20.80;99.90;;;;;;4180464;28;20430;-57
2022/10/13 15:10:18;;;;;;;2.60;2.45;;;20.90;99.90;;;;;;4183472;28;20059;-57
2022/10/13 15:12:38;;;;;;;2.03;1.85;;;20.70;99.90;;;;;;4181609;28;20055;-57